LFQB 150230Z AUTO 07003KT 9999 OVC032 00/M04 Q1024

ElémentsDécodage
LFQB Station météo située sur l'aérodrome de TROYES Barberey
150230Z émis le 15 du mois à 02h30 UTC
AUTO Bulletin édité par un automate
07003KT vent du 070°, 03 noeuds
9999 visibilité horizontale supérieure à 10 Km
OVC032 couverture nuageuse totale (8/8) à 3200 pieds
00/M04 température 00°C, point de rosée -04°C
 soit une humidité relative de 74%
Q1024 la pression au niveau de la mer (QNH) est de 1024 hPa